Terminal Aerodrome Forecast
Issued by NWS

Home | Current Version | Previous Version | Text Only | Print | Product List | Glossary On
Versions: 1 2 3 4 5 6 7 8 9 10 11 12 13
000
FTUS46 KSEW 240136 AAA
TAFBFI
TAF AMD
KBFI 240136Z 2402/2424 05009KT P6SM BKN050
     FM240700 02007KT P6SM SCT050
     FM241100 17005KT P6SM SCT050=

USA.gov is the U.S. government's official web portal to all federal, state and local government web resources and services.